createdAt,value
2023-02-28T00:00:26.621Z,24.82
2023-02-28T00:02:59.270Z,24.91
2023-02-28T00:05:32.857Z,25.00
2023-02-28T00:08:06.197Z,24.87
2023-02-28T00:10:42.370Z,24.63
2023-02-28T00:13:17.660Z,24.96
2023-02-28T00:16:02.460Z,24.69
2023-02-28T00:18:49.000Z,24.76
2023-02-28T00:21:25.582Z,24.94
2023-02-28T00:24:01.530Z,24.52
2023-02-28T00:26:34.549Z,24.71
2023-02-28T00:29:06.603Z,24.74
2023-02-28T00:31:40.179Z,24.53
2023-02-28T00:34:16.374Z,24.55
2023-02-28T00:36:57.100Z,24.48
2023-02-28T00:39:30.239Z,24.56
2023-02-28T00:42:04.468Z,24.32
2023-02-28T00:44:38.091Z,24.63
2023-02-28T00:47:09.139Z,24.24
2023-02-28T00:49:50.062Z,24.42
2023-02-28T00:52:22.644Z,24.26
2023-02-28T00:54:55.422Z,24.24
2023-02-28T00:57:37.104Z,24.42
2023-02-28T01:00:10.818Z,24.49
2023-02-28T01:02:45.966Z,24.32
2023-02-28T01:05:18.925Z,24.07
2023-02-28T01:07:58.064Z,24.34
2023-02-28T01:10:37.521Z,24.23
2023-02-28T01:13:13.183Z,24.14
2023-02-28T01:15:56.397Z,24.36
2023-02-28T01:18:29.921Z,23.92
2023-02-28T01:21:08.181Z,24.23
2023-02-28T01:23:40.985Z,24.41
2023-02-28T01:26:16.777Z,24.23
2023-02-28T01:28:53.381Z,24.14
2023-02-28T01:31:24.490Z,24.49
2023-02-28T01:34:05.595Z,24.48
2023-02-28T01:36:39.035Z,24.47
2023-02-28T01:39:08.695Z,24.36
2023-02-28T01:41:50.434Z,24.29
2023-02-28T01:44:57.189Z,24.52
2023-02-28T01:47:41.021Z,24.35
2023-02-28T01:50:20.985Z,24.04
2023-02-28T01:52:55.167Z,24.33
2023-02-28T01:55:29.814Z,24.28
2023-02-28T01:58:12.949Z,24.16
2023-02-28T02:00:53.906Z,24.48
2023-02-28T02:03:30.443Z,24.62
2023-02-28T02:06:12.839Z,24.46
2023-02-28T02:08:47.956Z,24.20
2023-02-28T02:11:25.928Z,23.96
2023-02-28T02:14:17.131Z,24.00
2023-02-28T02:17:07.841Z,24.24
2023-02-28T02:20:03.534Z,23.88
2023-02-28T02:22:48.733Z,24.11
2023-02-28T02:25:25.977Z,23.92
2023-02-28T02:28:11.381Z,24.19
2023-02-28T02:31:16.784Z,23.99
2023-02-28T02:34:05.500Z,23.87
2023-02-28T02:36:44.181Z,23.95
2023-02-28T02:39:51.091Z,23.75
2023-02-28T02:42:43.718Z,24.10
2023-02-28T02:45:28.200Z,24.28
2023-02-28T02:48:02.098Z,24.03
2023-02-28T02:50:42.452Z,24.23
2023-02-28T02:53:22.525Z,24.00
2023-02-28T02:55:59.047Z,24.13
2023-02-28T02:58:46.218Z,24.52
2023-02-28T03:01:29.145Z,23.91
2023-02-28T03:04:11.231Z,24.31
2023-02-28T03:06:40.164Z,23.97
2023-02-28T03:09:18.861Z,24.21
2023-02-28T03:11:55.787Z,24.31
2023-02-28T03:14:27.223Z,24.35
2023-02-28T03:17:05.996Z,24.03
2023-02-28T03:19:44.200Z,24.14
2023-02-28T03:22:50.864Z,24.47
2023-02-28T03:25:30.577Z,24.15
2023-02-28T03:28:19.212Z,24.25
2023-02-28T03:30:58.225Z,23.86
2023-02-28T03:33:39.277Z,24.10
2023-02-28T03:36:19.998Z,24.14
2023-02-28T03:39:04.142Z,24.22
2023-02-28T03:41:48.800Z,24.46
2023-02-28T03:44:28.286Z,24.46
2023-02-28T03:47:15.813Z,24.28
2023-02-28T03:50:17.687Z,24.14
2023-02-28T03:53:11.233Z,23.90
2023-02-28T03:55:49.140Z,24.15
2023-02-28T03:58:39.223Z,24.23
2023-02-28T04:01:21.373Z,24.08
2023-02-28T04:03:59.785Z,24.24
2023-02-28T04:06:37.804Z,24.27
2023-02-28T04:09:15.851Z,24.25
2023-02-28T04:11:57.298Z,24.24
2023-02-28T04:14:33.806Z,24.31
2023-02-28T04:17:09.289Z,24.45
2023-02-28T04:19:42.564Z,24.27
2023-02-28T04:22:18.840Z,24.08
2023-02-28T04:24:54.719Z,24.20
2023-02-28T04:27:22.749Z,24.29
2023-02-28T04:29:53.431Z,24.24
2023-02-28T04:32:21.578Z,24.30
2023-02-28T04:34:59.895Z,24.44
2023-02-28T04:37:38.255Z,24.21
2023-02-28T04:40:14.686Z,24.16
2023-02-28T04:42:48.206Z,24.35
2023-02-28T04:45:21.619Z,24.35
2023-02-28T04:47:55.207Z,24.77
2023-02-28T04:50:35.230Z,24.67
2023-02-28T04:53:10.694Z,24.73
2023-02-28T04:55:50.267Z,24.37
2023-02-28T04:58:24.093Z,24.48
2023-02-28T05:00:55.358Z,24.67
2023-02-28T05:03:28.141Z,24.37
2023-02-28T05:06:03.455Z,24.73
2023-02-28T05:08:44.266Z,24.49
2023-02-28T05:11:24.243Z,24.60
2023-02-28T05:14:05.523Z,24.93
2023-02-28T05:16:44.061Z,24.83
2023-02-28T05:19:22.599Z,24.68
2023-02-28T05:21:59.161Z,24.71
2023-02-28T05:24:36.397Z,24.37
2023-02-28T05:27:12.258Z,24.57
2023-02-28T05:29:44.307Z,24.44
2023-02-28T05:32:18.141Z,24.60
2023-02-28T05:34:51.195Z,24.48
2023-02-28T05:37:37.797Z,24.56
2023-02-28T05:40:11.417Z,24.56
2023-02-28T05:42:48.353Z,24.44
2023-02-28T05:45:22.146Z,24.25
2023-02-28T05:48:00.560Z,24.38
2023-02-28T05:50:39.375Z,24.60
2023-02-28T05:53:14.043Z,24.47
2023-02-28T05:55:51.194Z,24.33
2023-02-28T05:58:31.921Z,24.52
2023-02-28T06:01:23.856Z,24.50
2023-02-28T06:04:03.414Z,24.38
2023-02-28T06:06:38.942Z,24.57
2023-02-28T06:09:14.994Z,24.49
2023-02-28T06:11:48.020Z,24.58
2023-02-28T06:14:27.147Z,24.41
2023-02-28T06:17:04.176Z,24.35
2023-02-28T06:19:42.351Z,24.43
2023-02-28T06:22:24.206Z,24.63
2023-02-28T06:24:57.920Z,24.32
2023-02-28T06:27:28.241Z,24.33
2023-02-28T06:29:58.958Z,24.26
2023-02-28T06:32:37.996Z,24.28
2023-02-28T06:35:14.849Z,24.23
2023-02-28T06:37:54.926Z,24.23
2023-02-28T06:40:26.531Z,24.20
2023-02-28T06:42:59.128Z,23.97
2023-02-28T06:45:34.147Z,24.06
2023-02-28T06:48:07.554Z,23.99
2023-02-28T06:50:38.390Z,24.19
2023-02-28T06:53:11.412Z,24.25
2023-02-28T06:55:42.436Z,24.24
2023-02-28T06:58:24.144Z,24.68
2023-02-28T07:01:00.441Z,24.20
2023-02-28T07:03:34.545Z,24.74
2023-02-28T07:06:13.272Z,23.97
2023-02-28T07:08:48.112Z,24.22
2023-02-28T07:11:28.863Z,24.29
2023-02-28T07:14:06.860Z,24.13
2023-02-28T07:16:47.004Z,23.87
2023-02-28T07:19:24.948Z,23.88
2023-02-28T07:22:03.934Z,23.68
2023-02-28T07:24:39.674Z,23.78
2023-02-28T07:27:27.421Z,23.76
2023-02-28T07:30:02.509Z,23.72
2023-02-28T07:32:38.848Z,23.22
2023-02-28T07:35:17.536Z,23.00
2023-02-28T07:38:02.681Z,23.41
2023-02-28T07:40:40.856Z,23.23
2023-02-28T07:43:10.389Z,23.16
2023-02-28T07:45:50.404Z,23.01
2023-02-28T07:48:20.966Z,23.24
2023-02-28T07:51:07.513Z,23.12
2023-02-28T07:53:42.252Z,23.23
2023-02-28T07:56:12.952Z,23.30
2023-02-28T07:58:43.580Z,23.33
2023-02-28T08:01:12.750Z,23.33
2023-02-28T08:03:43.913Z,23.61
2023-02-28T08:06:25.430Z,23.70
2023-02-28T08:08:57.306Z,23.80
2023-02-28T08:11:38.815Z,23.80
2023-02-28T08:14:10.470Z,23.81
2023-02-28T08:16:40.053Z,23.85
2023-02-28T08:19:07.919Z,24.07
2023-02-28T08:21:44.261Z,24.00
2023-02-28T08:24:17.206Z,23.89
2023-02-28T08:26:53.524Z,24.03
2023-02-28T08:29:31.833Z,24.32
2023-02-28T08:32:02.711Z,24.14
2023-02-28T08:34:34.307Z,24.17
2023-02-28T08:37:09.325Z,24.22
2023-02-28T08:39:45.674Z,24.19
2023-02-28T08:42:15.953Z,24.35
2023-02-28T08:44:48.785Z,24.26
2023-02-28T08:47:16.826Z,24.34
2023-02-28T08:49:49.828Z,24.42
2023-02-28T08:52:24.540Z,24.13
2023-02-28T08:54:53.239Z,24.24
2023-02-28T08:57:24.359Z,24.19
2023-02-28T08:59:56.192Z,24.04
2023-02-28T09:02:24.174Z,24.40
2023-02-28T09:04:55.203Z,24.14
2023-02-28T09:07:27.250Z,24.21
2023-02-28T09:09:59.001Z,24.69
2023-02-28T09:12:33.161Z,24.79
2023-02-28T09:15:10.901Z,24.48
2023-02-28T09:17:48.657Z,24.60
2023-02-28T09:20:33.549Z,24.78
2023-02-28T09:23:13.358Z,24.78
2023-02-28T09:25:59.499Z,24.62
2023-02-28T09:28:38.232Z,24.75
2023-02-28T09:31:27.241Z,24.84
2023-02-28T09:34:02.410Z,24.97
2023-02-28T09:36:45.290Z,24.80
2023-02-28T09:39:27.840Z,24.65
2023-02-28T09:41:57.893Z,25.05
2023-02-28T09:44:44.802Z,25.21
2023-02-28T09:47:34.282Z,25.03
2023-02-28T09:50:30.997Z,24.93
2023-02-28T09:52:59.892Z,24.69
2023-02-28T09:55:57.025Z,24.48
2023-02-28T09:58:37.396Z,24.23
2023-02-28T10:01:14.097Z,24.24
2023-02-28T10:03:56.829Z,24.17
2023-02-28T10:06:37.523Z,24.59
2023-02-28T10:09:14.524Z,24.28
2023-02-28T10:14:25.719Z,24.17
2023-02-28T10:17:21.207Z,24.02
2023-02-28T10:20:12.036Z,24.10
2023-02-28T10:22:58.541Z,23.94
2023-02-28T10:25:33.023Z,23.77
2023-02-28T10:28:14.547Z,24.15
2023-02-28T10:30:54.459Z,24.31
2023-02-28T10:33:32.836Z,24.26
2023-02-28T10:36:12.354Z,24.04
2023-02-28T10:38:46.743Z,24.17
2023-02-28T10:41:40.931Z,24.32
2023-02-28T10:44:16.205Z,24.52
2023-02-28T10:46:44.811Z,24.25
2023-02-28T10:49:50.804Z,24.46
2023-02-28T10:52:43.737Z,24.54
2023-02-28T10:55:26.215Z,24.53
2023-02-28T10:57:56.885Z,24.55
2023-02-28T11:00:39.324Z,24.36
2023-02-28T11:03:31.955Z,24.52
2023-02-28T11:06:17.796Z,24.60
2023-02-28T11:08:59.724Z,24.56
2023-02-28T11:11:32.969Z,24.33
2023-02-28T11:14:16.136Z,24.43
2023-02-28T11:16:47.241Z,24.68
2023-02-28T11:19:35.331Z,24.49
2023-02-28T11:22:09.423Z,24.62
2023-02-28T11:24:47.012Z,24.63
2023-02-28T11:27:46.176Z,24.66
2023-02-28T11:30:35.296Z,24.29
2023-02-28T11:33:20.542Z,24.46
2023-02-28T11:35:52.898Z,24.48
2023-02-28T11:38:20.570Z,24.35
2023-02-28T11:41:18.784Z,24.41
2023-02-28T11:44:10.809Z,24.32
2023-02-28T11:46:53.178Z,24.36
2023-02-28T11:49:59.527Z,24.31
2023-02-28T11:52:56.801Z,24.46
2023-02-28T11:55:40.052Z,24.12
2023-02-28T11:58:48.477Z,23.97
2023-02-28T12:01:29.329Z,24.10
2023-02-28T12:04:15.304Z,24.23
2023-02-28T12:07:16.385Z,23.91
2023-02-28T12:10:18.723Z,23.82
2023-02-28T12:12:57.846Z,24.02
2023-02-28T12:15:41.695Z,23.89
2023-02-28T12:18:19.119Z,23.82
2023-02-28T12:21:07.440Z,23.96
2023-02-28T12:24:12.871Z,24.23
2023-02-28T12:26:58.697Z,24.07
2023-02-28T12:29:45.532Z,24.26
2023-02-28T12:32:23.032Z,23.62
2023-02-28T12:35:02.449Z,23.84
2023-02-28T12:37:57.328Z,23.91
2023-02-28T12:40:35.665Z,24.25
2023-02-28T12:43:11.030Z,24.23
2023-02-28T12:45:52.871Z,24.29
2023-02-28T12:48:35.820Z,24.30
2023-02-28T12:51:05.464Z,24.30
2023-02-28T12:54:11.898Z,24.29
2023-02-28T12:57:24.290Z,24.23
2023-02-28T12:59:59.533Z,24.30
2023-02-28T13:02:30.314Z,24.30
2023-02-28T13:05:10.281Z,24.28
2023-02-28T13:07:58.927Z,24.46
2023-02-28T13:10:43.220Z,24.31
2023-02-28T13:13:29.056Z,24.14
2023-02-28T13:16:07.051Z,24.43
2023-02-28T13:18:42.242Z,23.67
2023-02-28T13:21:24.559Z,24.03
2023-02-28T13:24:00.170Z,23.51
2023-02-28T13:26:39.573Z,23.23
2023-02-28T13:29:17.224Z,24.20
2023-02-28T13:32:06.993Z,23.93
2023-02-28T13:34:58.331Z,24.20
2023-02-28T13:37:35.661Z,23.79
2023-02-28T13:40:31.799Z,23.96
2023-02-28T13:43:05.097Z,24.53
2023-02-28T13:45:39.708Z,24.24
2023-02-28T13:48:28.113Z,24.35
2023-02-28T13:51:04.442Z,24.54
2023-02-28T13:53:48.257Z,24.37
2023-02-28T13:56:36.926Z,24.23
2023-02-28T13:59:35.056Z,24.42
2023-02-28T14:02:13.669Z,24.92
2023-02-28T14:04:57.872Z,24.93
2023-02-28T14:07:42.313Z,24.66
2023-02-28T14:10:42.462Z,24.72
2023-02-28T14:13:28.834Z,24.52
2023-02-28T14:16:05.258Z,24.86
2023-02-28T14:18:57.886Z,24.75
2023-02-28T14:21:33.256Z,24.84
2023-02-28T14:24:29.561Z,24.91
2023-02-28T14:27:07.383Z,24.84
2023-02-28T14:29:56.983Z,25.08
2023-02-28T14:32:36.323Z,25.03
2023-02-28T14:35:22.881Z,24.90
2023-02-28T14:37:57.561Z,24.89
2023-02-28T14:40:28.259Z,24.65
2023-02-28T14:43:04.454Z,24.96
2023-02-28T14:45:41.251Z,25.24
2023-02-28T14:48:14.438Z,24.98
2023-02-28T14:50:55.298Z,25.24
2023-02-28T14:53:31.863Z,25.04
2023-02-28T14:56:18.891Z,25.27
2023-02-28T14:58:53.123Z,25.23
2023-02-28T15:01:26.183Z,25.32
2023-02-28T15:04:06.066Z,25.53
2023-02-28T15:06:39.313Z,26.15
2023-02-28T15:09:22.220Z,24.86
2023-02-28T15:11:55.657Z,24.74
2023-02-28T15:14:29.810Z,24.80
2023-02-28T15:17:13.216Z,24.84
2023-02-28T15:19:46.566Z,24.36
2023-02-28T15:22:22.512Z,24.93
2023-02-28T15:24:57.658Z,24.86
2023-02-28T15:27:32.170Z,24.75
2023-02-28T15:30:10.277Z,24.38
2023-02-28T15:32:44.329Z,23.64
2023-02-28T15:35:33.070Z,23.03
2023-02-28T15:38:17.218Z,22.67
2023-02-28T15:41:00.359Z,21.85
2023-02-28T15:43:41.076Z,21.97
2023-02-28T15:46:12.252Z,22.66
2023-02-28T15:48:57.880Z,23.47
2023-02-28T15:51:33.795Z,23.74
2023-02-28T15:54:08.948Z,24.30
2023-02-28T15:56:45.828Z,24.36
2023-02-28T15:59:26.786Z,23.96
2023-02-28T16:02:54.923Z,24.35
2023-02-28T16:05:33.704Z,23.97
2023-02-28T16:08:16.610Z,23.29
2023-02-28T16:10:49.551Z,23.60
2023-02-28T16:13:22.981Z,24.04
2023-02-28T16:15:56.066Z,24.71
2023-02-28T16:18:25.977Z,24.71
2023-02-28T16:20:56.784Z,24.79
2023-02-28T16:23:27.360Z,24.59
2023-02-28T16:25:57.933Z,24.67
2023-02-28T16:28:41.222Z,24.79
2023-02-28T16:31:20.361Z,24.84
2023-02-28T16:33:48.401Z,24.94
2023-02-28T16:36:21.974Z,24.68
2023-02-28T16:38:53.385Z,24.73
2023-02-28T16:41:31.092Z,24.98
2023-02-28T16:44:14.116Z,24.95
2023-02-28T16:46:47.263Z,25.37
2023-02-28T16:49:17.376Z,25.07
2023-02-28T16:51:50.952Z,25.18
2023-02-28T16:54:21.782Z,25.42
2023-02-28T16:56:59.985Z,25.39
2023-02-28T16:59:28.693Z,25.71
2023-02-28T17:02:00.539Z,25.88
2023-02-28T17:04:31.680Z,25.61
2023-02-28T17:07:04.467Z,25.73
2023-02-28T17:09:42.402Z,25.52
2023-02-28T17:12:16.221Z,25.36
2023-02-28T17:14:47.273Z,25.89
2023-02-28T17:17:22.938Z,26.01
2023-02-28T17:19:51.050Z,26.14
2023-02-28T17:22:21.946Z,25.60
2023-02-28T17:25:02.563Z,25.72
2023-02-28T17:27:41.800Z,25.65
2023-02-28T17:30:20.550Z,25.61
2023-02-28T17:32:48.832Z,25.54
2023-02-28T17:35:25.175Z,25.81
2023-02-28T17:38:01.886Z,25.92
2023-02-28T17:40:40.014Z,26.00
2023-02-28T17:43:13.803Z,25.77
2023-02-28T17:45:51.975Z,26.00
2023-02-28T17:48:20.327Z,26.18
2023-02-28T17:50:51.217Z,26.25
2023-02-28T17:53:28.320Z,26.28
2023-02-28T17:55:58.407Z,25.98
2023-02-28T17:58:34.133Z,25.87
2023-02-28T18:01:02.377Z,26.08
2023-02-28T18:03:36.048Z,26.09
2023-02-28T18:06:09.225Z,26.01
2023-02-28T18:08:40.301Z,25.95
2023-02-28T18:11:18.244Z,26.02
2023-02-28T18:13:53.837Z,25.90
2023-02-28T18:16:23.880Z,25.90
2023-02-28T18:18:59.707Z,25.81
2023-02-28T18:21:27.908Z,25.77
2023-02-28T18:23:59.438Z,25.77
2023-02-28T18:26:33.148Z,25.92
2023-02-28T18:29:01.734Z,25.87
2023-02-28T18:31:34.972Z,25.89
2023-02-28T18:34:11.281Z,26.02
2023-02-28T18:36:47.129Z,25.90
2023-02-28T18:39:16.186Z,26.12
2023-02-28T18:41:52.155Z,25.94
2023-02-28T18:44:21.253Z,25.91
2023-02-28T18:46:55.643Z,26.07
2023-02-28T18:49:29.084Z,25.92
2023-02-28T18:52:06.910Z,25.80
2023-02-28T18:54:42.613Z,26.01
2023-02-28T18:57:13.496Z,26.02
2023-02-28T18:59:42.298Z,26.05
2023-02-28T19:02:18.528Z,26.06
2023-02-28T19:04:50.832Z,25.90
2023-02-28T19:07:21.076Z,25.90
2023-02-28T19:09:49.374Z,25.98
2023-02-28T19:12:19.355Z,25.94
2023-02-28T19:14:52.099Z,26.01
2023-02-28T19:17:23.435Z,26.23
2023-02-28T19:19:51.342Z,26.04
2023-02-28T19:22:19.395Z,26.32
2023-02-28T19:24:47.203Z,25.93
2023-02-28T19:27:17.248Z,26.04
2023-02-28T19:29:53.103Z,25.87
2023-02-28T19:32:21.444Z,25.80
2023-02-28T19:34:54.649Z,26.17
2023-02-28T19:37:24.922Z,26.16
2023-02-28T19:39:57.005Z,26.25
2023-02-28T19:42:24.838Z,26.17
2023-02-28T19:44:53.466Z,25.99
2023-02-28T19:47:21.093Z,26.06
2023-02-28T19:49:54.876Z,26.06
2023-02-28T19:52:28.225Z,26.15
2023-02-28T19:54:58.896Z,26.22
2023-02-28T19:57:26.596Z,25.97
2023-02-28T19:59:56.761Z,26.08
2023-02-28T20:02:27.741Z,26.12
2023-02-28T20:04:58.715Z,25.96
2023-02-28T20:07:32.256Z,26.07
2023-02-28T20:10:07.699Z,26.27
2023-02-28T20:12:38.151Z,26.07
2023-02-28T20:15:12.393Z,26.27
2023-02-28T20:17:42.172Z,26.11
2023-02-28T20:20:11.680Z,25.96
2023-02-28T20:22:40.197Z,26.14
2023-02-28T20:25:11.554Z,25.96
2023-02-28T20:27:39.096Z,25.97
2023-02-28T20:30:07.610Z,25.79
2023-02-28T20:32:39.634Z,26.13
2023-02-28T20:35:13.051Z,26.05
2023-02-28T20:37:40.723Z,26.07
2023-02-28T20:40:16.935Z,25.85
2023-02-28T20:42:47.230Z,26.01
2023-02-28T20:45:20.247Z,25.93
2023-02-28T20:47:51.604Z,25.99
2023-02-28T20:50:24.285Z,25.88
2023-02-28T20:52:53.082Z,26.14
2023-02-28T20:55:23.523Z,26.26
2023-02-28T20:57:54.352Z,26.17
2023-02-28T21:00:22.681Z,26.06
2023-02-28T21:02:53.634Z,26.23
2023-02-28T21:05:21.346Z,26.23
2023-02-28T21:07:49.126Z,26.14
2023-02-28T21:10:19.815Z,26.07
2023-02-28T21:12:57.892Z,26.33
2023-02-28T21:15:28.816Z,26.10
2023-02-28T21:17:57.695Z,26.23
2023-02-28T21:20:28.468Z,26.25
2023-02-28T21:22:56.253Z,26.24
2023-02-28T21:25:30.196Z,26.38
2023-02-28T21:28:01.676Z,26.26
2023-02-28T21:30:34.401Z,26.46
2023-02-28T21:33:02.139Z,26.41
2023-02-28T21:35:29.839Z,26.55
2023-02-28T21:38:02.816Z,26.62
2023-02-28T21:40:30.714Z,26.29
2023-02-28T21:43:01.348Z,26.31
2023-02-28T21:45:31.184Z,26.60
2023-02-28T21:47:59.663Z,26.12
2023-02-28T21:50:32.919Z,26.43
2023-02-28T21:53:03.706Z,26.45
2023-02-28T21:55:35.196Z,26.35
2023-02-28T21:58:05.894Z,26.31
2023-02-28T22:00:37.125Z,26.59
2023-02-28T22:03:04.953Z,26.24
2023-02-28T22:05:35.074Z,26.16
2023-02-28T22:08:05.820Z,26.21
2023-02-28T22:10:35.737Z,26.32
2023-02-28T22:13:04.434Z,26.31
2023-02-28T22:15:36.294Z,26.37
2023-02-28T22:18:07.829Z,26.25
2023-02-28T22:20:35.305Z,26.07
2023-02-28T22:23:06.169Z,26.00
2023-02-28T22:25:38.445Z,26.09
2023-02-28T22:28:06.977Z,26.17
2023-02-28T22:30:38.794Z,26.23
2023-02-28T22:33:06.577Z,26.15
2023-02-28T22:35:37.228Z,26.17
2023-02-28T22:38:07.339Z,26.17
2023-02-28T22:40:35.715Z,25.83
2023-02-28T22:43:04.064Z,26.01
2023-02-28T22:45:32.434Z,26.21
2023-02-28T22:48:02.858Z,25.97
2023-02-28T22:50:33.832Z,25.87
2023-02-28T22:53:01.615Z,26.03
2023-02-28T22:55:29.216Z,25.93
2023-02-28T22:57:56.981Z,26.15
2023-02-28T23:00:25.616Z,26.02
2023-02-28T23:02:55.360Z,25.93
2023-02-28T23:05:23.136Z,26.15
2023-02-28T23:07:50.893Z,26.09
2023-02-28T23:10:22.337Z,26.08
2023-02-28T23:12:56.013Z,26.30
2023-02-28T23:15:23.923Z,26.29
2023-02-28T23:17:51.601Z,26.24
2023-02-28T23:20:21.050Z,26.05
2023-02-28T23:22:52.369Z,26.35
2023-02-28T23:25:21.346Z,25.91
2023-02-28T23:27:51.787Z,26.13
2023-02-28T23:30:19.613Z,25.75
2023-02-28T23:32:47.340Z,26.50
2023-02-28T23:35:15.752Z,26.10
2023-02-28T23:37:49.393Z,26.09
2023-02-28T23:40:17.186Z,25.99
2023-02-28T23:42:45.747Z,26.13
2023-02-28T23:45:13.485Z,26.19
2023-02-28T23:47:44.219Z,26.01
2023-02-28T23:50:12.087Z,26.12
2023-02-28T23:52:40.644Z,26.44
2023-02-28T23:55:08.652Z,26.49
2023-02-28T23:57:41.973Z,26.31
